createdAt,value
2019-05-05T00:01:59.267Z,100757.41
2019-05-05T00:04:30.791Z,100757.87
2019-05-05T00:07:00.829Z,100760.42
2019-05-05T00:09:31.047Z,100766.39
2019-05-05T00:12:05.867Z,100763.89
2019-05-05T00:14:37.340Z,100769.78
2019-05-05T00:17:08.826Z,100764.98
2019-05-05T00:19:38.833Z,100774.01
2019-05-05T00:22:08.771Z,100774.83
2019-05-05T00:24:38.816Z,100778.41
2019-05-05T00:27:08.751Z,100790.69
2019-05-05T00:29:38.679Z,100786.52
2019-05-05T00:32:08.611Z,100792.86
2019-05-05T00:34:38.445Z,100788.23
2019-05-05T00:37:08.386Z,100790.55
2019-05-05T00:39:38.319Z,100788.17
2019-05-05T00:42:08.233Z,100795.16
2019-05-05T00:44:38.151Z,100786.41
2019-05-05T00:47:26.175Z,100785.59
2019-05-05T00:49:56.450Z,100787.30
2019-05-05T00:52:26.502Z,100792.08
2019-05-05T00:54:56.326Z,100792.84
2019-05-05T00:57:26.267Z,100795.02
2019-05-05T00:59:56.207Z,100792.89
2019-05-05T01:02:27.727Z,100784.61
2019-05-05T01:05:17.240Z,100787.84
2019-05-05T01:07:47.179Z,100784.56
2019-05-05T01:10:17.316Z,100789.95
2019-05-05T01:12:47.244Z,100785.33
2019-05-05T01:15:18.723Z,100787.22
2019-05-05T01:17:49.689Z,100792.63
2019-05-05T01:20:19.717Z,100788.73
2019-05-05T01:22:49.753Z,100791.25
2019-05-05T01:25:19.687Z,100789.70
2019-05-05T01:27:49.613Z,100787.94
2019-05-05T01:30:24.438Z,100791.30
2019-05-05T01:32:56.129Z,100795.34
2019-05-05T01:35:26.271Z,100805.92
2019-05-05T01:37:57.845Z,100803.50
2019-05-05T01:40:29.417Z,100799.73
2019-05-05T01:42:59.356Z,100797.84
2019-05-05T01:45:29.294Z,100803.67
2019-05-05T01:47:59.127Z,100802.31
2019-05-05T01:50:29.162Z,100812.69
2019-05-05T01:52:59.056Z,100810.52
2019-05-05T01:55:29.026Z,100805.09
2019-05-05T01:57:59.167Z,100800.28
2019-05-05T02:00:29.206Z,100808.05
2019-05-05T02:02:59.238Z,100812.95
2019-05-05T02:05:29.176Z,100809.32
2019-05-05T02:07:59.109Z,100814.13
2019-05-05T02:10:28.939Z,100806.09
2019-05-05T02:12:58.871Z,100812.42
2019-05-05T02:15:28.918Z,100821.42
2019-05-05T02:17:58.848Z,100819.73
2019-05-05T02:20:49.953Z,100823.70
2019-05-05T02:23:19.975Z,100829.05
2019-05-05T02:25:49.845Z,100828.61
2019-05-05T02:28:19.867Z,100830.81
2019-05-05T02:30:57.577Z,100828.73
2019-05-05T02:33:27.619Z,100838.41
2019-05-05T02:35:57.541Z,100834.14
2019-05-05T02:38:27.481Z,100839.53
2019-05-05T02:40:58.502Z,100842.33
2019-05-05T02:43:29.611Z,100839.38
2019-05-05T02:46:09.762Z,100833.65
2019-05-05T02:48:40.205Z,100834.77
2019-05-05T02:51:14.809Z,100843.99
2019-05-05T02:53:46.108Z,100844.73
2019-05-05T02:56:19.392Z,100841.81
2019-05-05T02:58:53.689Z,100849.72
2019-05-05T03:01:33.876Z,100845.66
2019-05-05T03:04:04.571Z,100856.34
2019-05-05T03:06:35.470Z,100851.11
2019-05-05T03:09:07.325Z,100851.06
2019-05-05T03:11:38.254Z,100852.48
2019-05-05T03:14:10.748Z,100852.77
2019-05-05T03:16:43.421Z,100856.24
2019-05-05T03:19:14.224Z,100862.67
2019-05-05T03:21:44.944Z,100864.56
2019-05-05T03:24:14.508Z,100870.48
2019-05-05T03:26:44.722Z,100867.02
2019-05-05T03:29:19.260Z,100873.02
2019-05-05T03:31:50.110Z,100866.55
2019-05-05T03:34:21.047Z,100880.63
2019-05-05T03:36:51.208Z,100875.79
2019-05-05T03:39:23.654Z,100877.66
2019-05-05T03:41:55.778Z,100878.47
2019-05-05T03:44:27.554Z,100882.17
2019-05-05T03:46:57.696Z,100882.55
2019-05-05T03:49:29.271Z,100889.22
2019-05-05T03:51:59.203Z,100893.77
2019-05-05T03:54:29.351Z,100897.01
2019-05-05T03:57:08.299Z,100888.09
2019-05-05T03:59:40.106Z,100895.95
2019-05-05T04:02:27.899Z,100896.46
2019-05-05T04:05:03.996Z,100909.92
2019-05-05T04:07:33.997Z,100913.10
2019-05-05T04:10:04.966Z,100919.30
2019-05-05T04:12:35.283Z,100912.95
2019-05-05T04:15:06.454Z,100912.41
2019-05-05T04:17:38.947Z,100916.78
2019-05-05T04:20:19.622Z,100919.07
2019-05-05T04:22:48.864Z,100916.74
2019-05-05T04:25:18.772Z,100915.47
2019-05-05T04:27:48.718Z,100911.78
2019-05-05T04:30:18.637Z,100919.81
2019-05-05T04:32:48.579Z,100917.75
2019-05-05T04:35:18.613Z,100921.66
2019-05-05T04:37:48.537Z,100924.00
2019-05-05T04:40:18.597Z,100913.66
2019-05-05T04:42:48.566Z,100919.33
2019-05-05T04:45:18.657Z,100921.11
2019-05-05T04:47:53.986Z,100925.74
2019-05-05T04:50:25.594Z,100926.88
2019-05-05T04:52:57.058Z,100919.38
2019-05-05T04:55:27.021Z,100921.36
2019-05-05T04:57:56.945Z,100928.50
2019-05-05T05:00:26.971Z,100927.27
2019-05-05T05:03:04.506Z,100922.02
2019-05-05T05:05:36.038Z,100929.72
2019-05-05T05:08:05.981Z,100926.80
2019-05-05T05:10:35.907Z,100931.67
2019-05-05T05:13:05.842Z,100933.08
2019-05-05T05:15:35.746Z,100930.50
2019-05-05T05:18:07.250Z,100936.50
2019-05-05T05:20:37.234Z,100928.37
2019-05-05T05:23:07.215Z,100925.34
2019-05-05T05:25:37.257Z,100928.83
2019-05-05T05:28:07.293Z,100931.34
2019-05-05T05:30:37.538Z,100933.75
2019-05-05T05:33:07.457Z,100936.41
2019-05-05T05:35:37.500Z,100941.83
2019-05-05T05:38:07.458Z,100948.58
2019-05-05T05:40:38.959Z,100943.91
2019-05-05T05:43:10.477Z,100947.28
2019-05-05T05:45:47.976Z,100949.13
2019-05-05T05:48:28.340Z,100942.59
2019-05-05T05:50:59.986Z,100946.59
2019-05-05T05:53:29.863Z,100943.95
2019-05-05T05:55:59.990Z,100941.97
2019-05-05T05:58:30.030Z,100942.84
2019-05-05T09:17:28.034Z,100838.37
2019-05-05T09:19:57.466Z,100844.99
2019-05-05T09:22:27.397Z,100829.34
2019-05-05T09:25:05.200Z,100842.32
2019-05-05T09:27:44.281Z,100820.03
2019-05-05T09:30:16.206Z,100819.47
2019-05-05T09:32:46.162Z,100807.89
2019-05-05T09:35:16.092Z,100817.44
2019-05-05T09:37:46.037Z,100826.89
2019-05-05T09:40:18.788Z,100812.77
2019-05-05T09:42:48.768Z,100809.42
2019-05-05T09:45:18.012Z,100804.91
2019-05-05T09:47:51.393Z,100819.33
2019-05-05T09:50:23.583Z,100803.66
2019-05-05T09:52:53.618Z,100810.39
2019-05-05T09:55:24.175Z,100797.41
2019-05-05T09:57:54.304Z,100796.68
2019-05-05T10:00:24.468Z,100803.83
2019-05-05T10:02:54.677Z,100790.67
2019-05-05T10:05:23.831Z,100796.29
2019-05-05T10:07:54.468Z,100794.94
2019-05-05T10:10:24.482Z,100782.17
2019-05-05T10:12:54.994Z,100791.09
2019-05-05T10:15:25.078Z,100785.08
2019-05-05T10:17:54.325Z,100782.72
2019-05-05T10:20:24.230Z,100786.44
2019-05-05T10:22:54.283Z,100790.84
2019-05-05T10:25:37.730Z,100779.56
2019-05-05T10:28:07.738Z,100791.48
2019-05-05T10:30:37.701Z,100791.92
2019-05-05T10:33:07.606Z,100778.07
2019-05-05T10:35:37.567Z,100767.64
2019-05-05T10:38:07.481Z,100781.44
2019-05-05T10:40:37.413Z,100789.03
2019-05-05T10:43:07.458Z,100781.93
2019-05-05T10:45:37.495Z,100772.13
2019-05-05T10:48:07.526Z,100764.42
2019-05-05T10:50:37.467Z,100760.72
2019-05-05T10:53:07.393Z,100751.31
2019-05-05T10:55:37.347Z,100751.44
2019-05-05T10:58:07.369Z,100751.59
2019-05-05T11:00:44.323Z,100762.36
2019-05-05T11:03:15.269Z,100758.63
2019-05-05T11:05:46.392Z,100746.66
2019-05-05T11:08:16.619Z,100752.19
2019-05-05T11:10:46.558Z,100744.84
2019-05-05T11:13:16.598Z,100747.20
2019-05-05T11:15:46.934Z,100743.27
2019-05-05T11:18:16.180Z,100745.31
2019-05-05T11:20:46.063Z,100752.05
2019-05-05T11:23:15.847Z,100749.51
2019-05-05T11:25:45.744Z,100755.84
2019-05-05T11:28:15.683Z,100747.04
2019-05-05T11:30:47.665Z,100742.72
2019-05-05T11:33:35.302Z,100750.61
2019-05-05T11:36:24.029Z,100743.25
2019-05-05T11:38:54.080Z,100746.81
2019-05-05T11:41:24.343Z,100737.52
2019-05-05T11:43:53.682Z,100724.64
2019-05-05T11:46:24.730Z,100730.61
2019-05-05T11:48:55.870Z,100728.39
2019-05-05T11:51:25.809Z,100721.96
2019-05-05T11:53:55.740Z,100723.52
2019-05-05T11:56:25.674Z,100736.62
2019-05-05T11:58:55.604Z,100714.92
2019-05-05T12:01:25.544Z,100719.17
2019-05-05T12:03:55.461Z,100708.35
2019-05-05T12:06:25.361Z,100700.55
2019-05-05T12:08:55.179Z,100705.47
2019-05-05T12:11:25.098Z,100724.61
2019-05-05T12:13:55.137Z,100705.34
2019-05-05T12:16:31.921Z,100705.34
2019-05-05T12:19:03.489Z,100714.01
2019-05-05T12:21:33.826Z,100716.34
2019-05-05T12:24:05.593Z,100720.33
2019-05-05T12:26:37.172Z,100712.87
2019-05-05T12:29:09.767Z,100713.99
2019-05-05T12:31:41.329Z,100699.29
2019-05-05T12:34:11.403Z,100695.69
2019-05-05T12:36:41.397Z,100694.23
2019-05-05T12:39:14.170Z,100679.70
2019-05-05T12:41:44.437Z,100693.12
2019-05-05T12:44:16.020Z,100685.69
2019-05-05T12:46:50.548Z,100679.97
2019-05-05T12:49:22.707Z,100675.06
2019-05-05T12:51:54.075Z,100672.38
2019-05-05T12:54:24.544Z,100668.20
2019-05-05T12:56:54.492Z,100690.45
2019-05-05T12:59:25.946Z,100685.78
2019-05-05T13:01:56.092Z,100676.58
2019-05-05T13:04:26.023Z,100694.63
2019-05-05T13:06:56.170Z,100676.56
2019-05-05T13:09:26.299Z,100674.11
2019-05-05T13:11:56.341Z,100684.17
2019-05-05T13:14:26.271Z,100687.25
2019-05-05T13:16:56.266Z,100681.09
2019-05-05T13:19:30.756Z,100686.38
2019-05-05T13:22:05.176Z,100683.79
2019-05-05T13:24:51.685Z,100676.55
2019-05-05T13:27:34.233Z,100674.17
2019-05-05T13:30:05.882Z,100673.42
2019-05-05T13:32:35.820Z,100671.00
2019-05-05T13:35:07.445Z,100670.97
2019-05-05T13:37:37.423Z,100675.84
2019-05-05T13:40:08.065Z,100683.37
2019-05-05T13:42:38.001Z,100681.52
2019-05-05T13:45:20.212Z,100679.44
2019-05-05T13:47:50.145Z,100675.13
2019-05-05T13:50:36.749Z,100666.69
2019-05-05T13:53:06.690Z,100677.70
2019-05-05T13:55:36.620Z,100674.81
2019-05-05T13:58:08.686Z,100680.16
2019-05-05T14:00:38.160Z,100675.06
2019-05-05T14:03:08.159Z,100664.36
2019-05-05T14:05:38.107Z,100665.70
2019-05-05T14:08:08.242Z,100668.41
2019-05-05T14:10:38.184Z,100659.45
2019-05-05T14:13:10.462Z,100659.81
2019-05-05T14:15:40.092Z,100671.34
2019-05-05T14:18:10.021Z,100673.17
2019-05-05T14:20:39.919Z,100669.91
2019-05-05T14:23:09.895Z,100650.39
2019-05-05T14:25:39.822Z,100662.62
2019-05-05T14:28:09.769Z,100660.34
2019-05-05T14:30:41.240Z,100665.50
2019-05-05T14:33:15.461Z,100670.84
2019-05-05T14:35:54.014Z,100664.36
2019-05-05T14:38:41.008Z,100660.52
2019-05-05T14:41:10.867Z,100664.19
2019-05-05T14:43:40.875Z,100666.68
2019-05-05T14:46:10.911Z,100672.23
2019-05-05T14:48:40.814Z,100669.53
2019-05-05T14:51:10.775Z,100670.60
2019-05-05T14:53:43.753Z,100676.02
2019-05-05T14:56:14.128Z,100666.28
2019-05-05T14:58:44.261Z,100673.06
2019-05-05T15:01:14.525Z,100671.58
2019-05-05T15:03:44.626Z,100659.55
2019-05-05T15:06:19.917Z,100671.61
2019-05-05T15:08:51.472Z,100663.42
2019-05-05T15:11:26.123Z,100671.00
2019-05-05T15:13:56.045Z,100673.52
2019-05-05T15:16:26.494Z,100669.16
2019-05-05T15:18:55.634Z,100669.53
2019-05-05T15:21:25.545Z,100667.08
2019-05-05T15:23:55.474Z,100668.19
2019-05-05T15:26:25.401Z,100678.49
2019-05-05T15:29:01.324Z,100666.78
2019-05-05T15:31:26.981Z,100667.48
2019-05-05T15:33:56.958Z,100658.00
2019-05-05T15:36:29.386Z,100661.59
2019-05-05T15:38:58.345Z,100657.39
2019-05-05T15:41:28.394Z,100673.12
2019-05-05T15:43:58.343Z,100673.67
2019-05-05T15:46:28.274Z,100670.14
2019-05-05T15:48:58.099Z,100662.37
2019-05-05T15:51:29.109Z,100661.78
2019-05-05T15:53:59.032Z,100665.23
2019-05-05T15:56:29.031Z,100668.42
2019-05-05T15:58:58.960Z,100662.26
2019-05-05T16:01:28.810Z,100665.42
2019-05-05T16:03:58.827Z,100659.42
2019-05-05T16:06:28.765Z,100663.13
2019-05-05T16:08:58.711Z,100664.63
2019-05-05T16:11:28.739Z,100663.30
2019-05-05T16:14:01.087Z,100657.67
2019-05-05T16:16:38.013Z,100664.44
2019-05-05T16:19:09.602Z,100666.43
2019-05-05T16:21:50.263Z,100656.56
2019-05-05T16:24:21.725Z,100662.97
2019-05-05T16:26:53.760Z,100661.97
2019-05-05T16:29:23.755Z,100662.06
2019-05-05T16:31:53.655Z,100660.19
2019-05-05T16:34:23.654Z,100657.01
2019-05-05T16:36:54.427Z,100652.10
2019-05-05T16:39:25.687Z,100657.95
2019-05-05T16:41:56.005Z,100650.05
2019-05-05T16:44:25.912Z,100660.03
2019-05-05T16:46:57.347Z,100666.72
2019-05-05T16:49:27.522Z,100663.72
2019-05-05T16:52:00.765Z,100661.60
2019-05-05T16:54:33.657Z,100658.91
2019-05-05T16:57:05.670Z,100659.22
2019-05-05T16:59:35.346Z,100654.55
2019-05-05T17:02:05.277Z,100657.87
2019-05-05T17:04:36.339Z,100660.92
2019-05-05T17:07:06.268Z,100659.00
2019-05-05T17:09:36.201Z,100659.56
2019-05-05T17:12:13.914Z,100664.25
2019-05-05T17:15:01.745Z,100661.77
2019-05-05T17:17:40.372Z,100669.20
2019-05-05T17:20:13.901Z,100673.27
2019-05-05T17:22:45.416Z,100661.98
2019-05-05T17:25:15.601Z,100666.39
2019-05-05T17:27:50.473Z,100666.90
2019-05-05T17:30:18.950Z,100674.59
2019-05-05T17:32:50.431Z,100676.79
2019-05-05T17:35:20.558Z,100670.13
2019-05-05T17:37:50.614Z,100668.72
2019-05-05T17:40:24.131Z,100664.56
2019-05-05T17:43:02.325Z,100667.02
2019-05-05T17:45:34.369Z,100663.38
2019-05-05T17:48:06.072Z,100665.22
2019-05-05T17:50:53.580Z,100661.02
2019-05-05T17:53:25.475Z,100663.98
2019-05-05T17:55:57.054Z,100665.14
2019-05-05T17:58:27.703Z,100667.69
2019-05-05T18:00:59.412Z,100666.77
2019-05-05T18:03:29.514Z,100669.67
2019-05-05T18:06:05.281Z,100670.60
2019-05-05T18:08:40.641Z,100669.73
2019-05-05T18:11:21.511Z,100674.98
2019-05-05T18:13:54.338Z,100672.64
2019-05-05T18:16:27.021Z,100669.42
2019-05-05T18:18:57.246Z,100671.77
2019-05-05T18:21:31.750Z,100671.06
2019-05-05T18:23:58.758Z,100672.58
2019-05-05T18:26:28.804Z,100671.45
2019-05-05T18:28:58.741Z,100680.41
2019-05-05T18:31:28.765Z,100672.70
2019-05-05T18:33:59.610Z,100668.19
2019-05-05T18:36:29.630Z,100670.34
2019-05-05T18:38:59.591Z,100669.00
2019-05-05T18:41:36.995Z,100670.41
2019-05-05T18:44:24.182Z,100676.70
2019-05-05T18:47:14.437Z,100675.82
2019-05-05T18:49:42.288Z,100679.16
2019-05-05T18:52:13.860Z,100684.86
2019-05-05T18:54:44.004Z,100672.48
2019-05-05T18:57:13.881Z,100691.98
2019-05-05T18:59:44.703Z,100686.41
2019-05-05T19:02:24.047Z,100694.56
2019-05-05T19:05:13.532Z,100699.73
2019-05-05T19:07:55.602Z,100699.48
2019-05-05T19:10:24.256Z,100697.23
2019-05-05T19:12:55.303Z,100696.05
2019-05-05T19:15:25.307Z,100691.37
2019-05-05T19:17:55.246Z,100700.33
2019-05-05T19:20:29.481Z,100706.89
2019-05-05T19:23:05.856Z,100701.94
2019-05-05T19:25:35.950Z,100706.70
2019-05-05T19:28:05.926Z,100714.03
2019-05-05T19:30:36.330Z,100709.32
2019-05-05T19:33:06.447Z,100708.55
2019-05-05T19:35:44.120Z,100715.05
2019-05-05T19:38:09.244Z,100710.48
2019-05-05T19:40:39.225Z,100715.39
2019-05-05T19:43:09.312Z,100711.60
2019-05-05T19:45:39.361Z,100707.70
2019-05-05T19:48:09.219Z,100711.19
2019-05-05T19:50:44.497Z,100711.66
2019-05-05T19:53:25.525Z,100710.63
2019-05-05T19:55:56.278Z,100704.82
2019-05-05T19:58:26.206Z,100700.23
2019-05-05T20:00:57.794Z,100695.14
2019-05-05T20:03:27.901Z,100700.62
2019-05-05T20:05:57.753Z,100702.80
2019-05-05T20:08:39.968Z,100707.98
2019-05-05T20:10:59.367Z,100708.36
2019-05-05T20:13:29.295Z,100707.78
2019-05-05T20:16:10.065Z,100711.52
2019-05-05T20:18:40.017Z,100712.31
2019-05-05T20:21:09.937Z,100712.89
2019-05-05T20:23:39.897Z,100712.73
2019-05-05T20:26:09.808Z,100711.38
2019-05-05T20:28:39.744Z,100719.59
2019-05-05T20:31:09.694Z,100724.82
2019-05-05T20:33:54.392Z,100718.78
2019-05-05T20:36:31.951Z,100719.48
2019-05-05T20:39:04.207Z,100717.03
2019-05-05T20:41:35.187Z,100721.71
2019-05-05T20:44:05.910Z,100726.61
2019-05-05T20:46:35.981Z,100721.98
2019-05-05T20:49:05.914Z,100726.98
2019-05-05T20:51:35.760Z,100731.13
2019-05-05T20:54:05.594Z,100721.45
2019-05-05T20:56:35.422Z,100725.50
2019-05-05T20:59:05.502Z,100719.08
2019-05-05T21:01:35.385Z,100719.84
2019-05-05T21:04:05.430Z,100724.95
2019-05-05T21:06:35.454Z,100720.39
2019-05-05T21:09:08.282Z,100720.62
2019-05-05T21:11:38.304Z,100722.69
2019-05-05T21:14:08.236Z,100712.78
2019-05-05T21:16:38.165Z,100708.06
2019-05-05T21:19:07.994Z,100714.13
2019-05-05T21:21:39.977Z,100707.38
2019-05-05T21:24:09.919Z,100705.31
2019-05-05T21:26:47.387Z,100708.37
2019-05-05T21:29:18.061Z,100705.58
2019-05-05T21:31:47.521Z,100697.78
2019-05-05T21:34:17.424Z,100693.63
2019-05-05T21:36:47.375Z,100700.66
2019-05-05T21:39:17.293Z,100693.38
2019-05-05T21:41:49.800Z,100699.69
2019-05-05T21:44:20.231Z,100694.31
2019-05-05T21:46:50.158Z,100699.14
2019-05-05T21:49:20.093Z,100696.22
2019-05-05T21:51:54.737Z,100693.95
2019-05-05T21:54:43.789Z,100682.00
2019-05-05T21:57:31.325Z,100689.86
2019-05-05T22:00:01.369Z,100686.31
2019-05-05T22:02:34.536Z,100678.48
2019-05-05T22:05:06.336Z,100678.97
2019-05-05T22:07:36.279Z,100682.91
2019-05-05T22:10:07.133Z,100677.07
2019-05-05T22:12:37.177Z,100683.16
2019-05-05T22:15:07.623Z,100683.20
2019-05-05T22:17:37.551Z,100678.91
2019-05-05T22:20:09.015Z,100676.96
2019-05-05T22:22:40.602Z,100673.28
2019-05-05T22:25:10.634Z,100670.08
2019-05-05T22:27:40.565Z,100662.72
2019-05-05T22:30:10.730Z,100662.00
2019-05-05T22:32:40.638Z,100665.70
2019-05-05T22:35:14.066Z,100652.91
2019-05-05T22:37:43.934Z,100643.83
2019-05-05T22:40:24.346Z,100645.66
2019-05-05T22:42:55.525Z,100645.77
2019-05-05T22:45:26.580Z,100638.77
2019-05-05T22:47:56.510Z,100641.41
2019-05-05T22:50:27.774Z,100635.90
2019-05-05T22:52:57.835Z,100642.08
2019-05-05T22:55:27.737Z,100635.03
2019-05-05T22:57:57.678Z,100638.22
2019-05-05T23:00:29.732Z,100632.63
2019-05-05T23:03:14.978Z,100631.27
2019-05-05T23:05:55.707Z,100628.92
2019-05-05T23:08:24.939Z,100623.09
2019-05-05T23:10:54.763Z,100624.95
2019-05-05T23:13:24.701Z,100632.52
2019-05-05T23:15:56.182Z,100638.08
2019-05-05T23:18:27.603Z,100624.86
2019-05-05T23:21:15.910Z,100624.03
2019-05-05T23:23:56.016Z,100626.38
2019-05-05T23:26:29.759Z,100621.86
2019-05-05T23:28:59.688Z,100614.52
2019-05-05T23:31:30.654Z,100618.42
2019-05-05T23:34:00.682Z,100621.30
2019-05-05T23:39:04.986Z,100602.28
2019-05-05T23:41:35.499Z,100609.53
2019-05-05T23:44:05.936Z,100612.53
2019-05-05T23:46:35.905Z,100606.02
2019-05-05T23:49:05.816Z,100602.94
2019-05-05T23:51:35.863Z,100602.58
2019-05-05T23:54:05.794Z,100607.06
2019-05-05T23:56:35.827Z,100600.68
2019-05-05T23:59:05.761Z,100598.39
